Time;durP1;ratioP1;P1;durP2;ratioP2;P2;SDS_P1;SDS_P2;PMS_P1;PMS_P2;Temp;Humidity;BMP_temperature;BMP_pressure;BME280_temperature;BME280_humidity;BME280_pressure;Samples;Min_cycle;Max_cycle;Signal;HPM_P1;HPM_P2
2023/12/07 00:00:19;;;;;;;1.10;1.00;;;2.60;99.90;;;;;;5114895;28;20470;-71
2023/12/07 00:02:44;;;;;;;1.98;1.88;;;2.60;99.90;;;;;;5114841;28;20035;-71
2023/12/07 00:05:10;;;;;;;1.52;1.42;;;2.60;99.90;;;;;;5114820;28;20077;-74
2023/12/07 00:07:35;;;;;;;0.90;0.90;;;2.60;99.90;;;;;;5114573;28;20152;-74
2023/12/07 00:10:01;;;;;;;1.20;1.10;;;2.60;99.90;;;;;;5114861;28;20032;-73
2023/12/07 00:12:27;;;;;;;1.17;1.08;;;2.60;99.90;;;;;;5114683;28;20046;-70
2023/12/07 00:14:52;;;;;;;1.08;1.00;;;2.60;99.90;;;;;;5113488;28;20050;-71
2023/12/07 00:17:18;;;;;;;1.10;1.00;;;2.60;99.90;;;;;;5114701;28;20451;-73
2023/12/07 00:19:44;;;;;;;0.90;0.90;;;2.50;99.90;;;;;;5114834;28;20036;-72
2023/12/07 00:22:10;;;;;;;1.30;1.20;;;2.60;99.90;;;;;;5114942;28;20443;-71
2023/12/07 00:24:35;;;;;;;1.10;1.00;;;2.50;99.90;;;;;;5114746;28;20036;-73
2023/12/07 00:27:01;;;;;;;1.10;1.00;;;2.50;99.90;;;;;;5113686;28;20092;-73
2023/12/07 00:29:26;;;;;;;1.70;1.60;;;2.50;99.90;;;;;;5114002;28;20456;-71
2023/12/07 00:31:52;;;;;;;0.98;0.90;;;2.50;99.90;;;;;;5114508;28;20075;-72
2023/12/07 00:34:18;;;;;;;1.08;1.00;;;2.50;99.90;;;;;;5114245;28;20118;-70
2023/12/07 00:36:44;;;;;;;1.10;1.00;;;2.50;99.90;;;;;;5114324;28;20138;-71
2023/12/07 00:39:10;;;;;;;1.38;1.27;;;2.50;99.90;;;;;;5114284;28;20119;-72
2023/12/07 00:41:35;;;;;;;1.23;1.13;;;2.40;99.90;;;;;;5114284;28;20114;-72
2023/12/07 00:44:01;;;;;;;1.10;1.00;;;2.40;99.90;;;;;;5113949;28;20123;-71
2023/12/07 00:46:26;;;;;;;1.85;1.75;;;2.40;99.90;;;;;;5114165;28;20036;-74
2023/12/07 00:48:52;;;;;;;1.20;1.10;;;2.40;99.90;;;;;;5114218;28;20076;-72
2023/12/07 00:51:18;;;;;;;1.00;1.00;;;2.50;99.90;;;;;;5114412;28;20080;-72
2023/12/07 00:53:43;;;;;;;1.20;1.10;;;2.40;99.90;;;;;;5114157;28;20463;-70
2023/12/07 00:56:09;;;;;;;1.10;1.00;;;3.10;99.90;;;;;;5114117;28;20452;-73
2023/12/07 00:58:35;;;;;;;1.10;1.00;;;2.40;99.90;;;;;;5114165;28;20068;-72
2023/12/07 01:01:01;;;;;;;1.40;1.30;;;2.40;99.90;;;;;;5114169;28;20043;-70
2023/12/07 01:03:27;;;;;;;1.20;1.10;;;2.40;99.90;;;;;;5114191;28;20741;-73
2023/12/07 01:05:52;;;;;;;0.85;0.85;;;2.40;99.90;;;;;;5114277;28;20051;-72
2023/12/07 01:08:18;;;;;;;1.30;1.20;;;2.40;99.90;;;;;;5114168;28;20462;-74
2023/12/07 01:10:43;;;;;;;1.10;1.00;;;2.40;99.90;;;;;;5114284;28;20043;-73
2023/12/07 01:13:09;;;;;;;1.45;1.35;;;2.40;99.90;;;;;;5113985;28;20040;-71
2023/12/07 01:15:35;;;;;;;1.25;1.15;;;2.40;99.90;;;;;;5114086;28;20032;-70
2023/12/07 01:18:00;;;;;;;1.10;1.00;;;2.40;99.90;;;;;;5114037;28;20435;-73
2023/12/07 01:20:26;;;;;;;0.98;0.90;;;2.40;99.90;;;;;;5113451;28;20051;-74
2023/12/07 01:22:51;;;;;;;1.10;1.00;;;2.40;99.90;;;;;;5114270;28;20131;-71
2023/12/07 01:25:21;;;;;;;1.10;1.00;;;2.40;99.90;;;;;;5114080;28;20071;-70
2023/12/07 01:27:47;;;;;;;1.00;1.00;;;2.40;99.90;;;;;;5113816;28;20047;-73
2023/12/07 01:30:13;;;;;;;1.10;1.00;;;2.40;99.90;;;;;;5114031;28;20374;-72
2023/12/07 01:32:38;;;;;;;1.10;1.00;;;2.40;99.90;;;;;;5113740;28;20122;-71
2023/12/07 01:35:04;;;;;;;1.20;1.10;;;2.40;99.90;;;;;;5113770;28;20080;-71
2023/12/07 01:37:30;;;;;;;1.03;1.00;;;2.40;99.90;;;;;;5114291;28;20040;-72
2023/12/07 01:39:56;;;;;;;1.20;1.10;;;2.40;99.90;;;;;;5117699;27;20039;-71
2023/12/07 01:42:21;;;;;;;1.10;1.00;;;2.40;99.90;;;;;;5117629;28;20036;-71
2023/12/07 01:44:47;;;;;;;1.42;1.13;;;2.40;99.90;;;;;;5117722;28;20040;-73
2023/12/07 01:47:13;;;;;;;1.30;1.20;;;2.40;99.90;;;;;;5117499;28;20478;-72
2023/12/07 01:49:40;;;;;;;1.30;1.20;;;2.40;99.90;;;;;;5116188;28;20031;-74
2023/12/07 01:52:06;;;;;;;1.10;1.00;;;2.40;99.90;;;;;;5117460;28;20050;-70
2023/12/07 01:54:32;;;;;;;1.02;1.00;;;2.40;99.90;;;;;;5117172;28;20042;-72
2023/12/07 01:56:58;;;;;;;0.90;0.90;;;2.40;99.90;;;;;;5117341;28;20036;-74
2023/12/07 01:59:24;;;;;;;1.05;1.00;;;2.40;99.90;;;;;;5117074;28;20036;-73
2023/12/07 02:01:50;;;;;;;1.10;1.00;;;2.40;99.90;;;;;;5117091;28;20127;-72
2023/12/07 02:04:16;;;;;;;0.90;0.90;;;2.40;99.90;;;;;;5117005;28;20126;-69
2023/12/07 02:06:42;;;;;;;1.10;1.00;;;2.40;99.90;;;;;;5117239;28;20356;-72
2023/12/07 02:09:09;;;;;;;1.10;1.00;;;2.40;99.90;;;;;;5117114;28;20096;-72
2023/12/07 02:11:34;;;;;;;1.20;1.10;;;2.40;99.90;;;;;;5117142;28;20082;-72
2023/12/07 02:14:00;;;;;;;4.20;3.90;;;2.90;99.90;;;;;;5116782;28;20040;-71
2023/12/07 02:17:06;;;;;;;1.10;1.00;;;2.50;99.90;;;;;;5116783;28;20050;-71
2023/12/07 02:19:56;;;;;;;1.45;1.35;;;2.40;99.90;;;;;;5116686;27;20041;-72
2023/12/07 02:22:31;;;;;;;1.20;1.10;;;2.40;99.90;;;;;;5116415;28;20058;-73
2023/12/07 02:25:18;;;;;;;1.10;1.00;;;2.40;99.90;;;;;;5116633;28;20044;-71
2023/12/07 02:27:48;;;;;;;1.20;1.10;;;2.40;99.90;;;;;;5116710;28;20040;-73
2023/12/07 02:30:14;;;;;;;1.10;1.00;;;2.40;99.90;;;;;;5116256;28;20040;-74
2023/12/07 02:32:43;;;;;;;1.20;1.10;;;2.40;99.90;;;;;;5116413;28;20036;-71
2023/12/07 02:35:12;;;;;;;1.13;1.02;;;2.40;99.90;;;;;;5116384;28;20047;-72
2023/12/07 02:37:43;;;;;;;1.30;1.20;;;2.40;99.90;;;;;;5116755;28;20035;-71
2023/12/07 02:40:11;;;;;;;1.10;1.00;;;2.40;99.90;;;;;;5116658;28;20036;-71
2023/12/07 02:42:40;;;;;;;1.33;1.23;;;2.40;99.90;;;;;;5116293;27;20391;-70
2023/12/07 02:45:07;;;;;;;0.95;0.95;;;2.30;99.90;;;;;;5116261;28;20047;-69
2023/12/07 02:47:33;;;;;;;1.20;1.10;;;2.30;99.90;;;;;;5116226;28;20046;-72
2023/12/07 02:49:59;;;;;;;1.17;1.08;;;2.30;99.90;;;;;;5114089;28;20032;-74
2023/12/07 02:52:25;;;;;;;1.10;1.00;;;2.30;99.90;;;;;;5116613;28;20081;-73
2023/12/07 02:54:50;;;;;;;1.10;1.00;;;2.30;99.90;;;;;;5116669;28;20455;-73
2023/12/07 02:57:16;;;;;;;1.20;1.10;;;2.30;99.90;;;;;;5115991;28;20032;-72
2023/12/07 02:59:41;;;;;;;1.10;1.00;;;2.30;99.90;;;;;;5115703;28;20044;-71
2023/12/07 03:02:07;;;;;;;1.10;1.00;;;2.30;99.90;;;;;;5115789;28;20036;-70
2023/12/07 03:04:33;;;;;;;1.25;1.15;;;2.30;99.90;;;;;;5115878;28;20036;-72
2023/12/07 03:06:59;;;;;;;1.23;1.13;;;2.30;99.90;;;;;;5116007;28;20092;-73
2023/12/07 03:09:24;;;;;;;1.20;1.10;;;2.30;99.90;;;;;;5115866;28;20034;-73
2023/12/07 03:11:50;;;;;;;1.10;1.00;;;2.30;99.90;;;;;;5115879;28;20424;-74
2023/12/07 03:14:16;;;;;;;1.10;1.00;;;2.30;99.90;;;;;;5115647;28;20051;-72
2023/12/07 03:16:42;;;;;;;1.10;1.00;;;2.30;99.90;;;;;;5115504;28;20379;-71
2023/12/07 03:19:07;;;;;;;1.10;1.00;;;2.20;99.90;;;;;;5114054;28;20083;-73
2023/12/07 03:21:33;;;;;;;1.10;1.00;;;2.20;99.90;;;;;;5115492;28;20063;-74
2023/12/07 03:23:59;;;;;;;1.10;1.00;;;2.20;99.90;;;;;;5115766;28;20039;-72
2023/12/07 03:26:24;;;;;;;1.10;1.00;;;2.20;99.90;;;;;;5115388;28;20371;-72
2023/12/07 03:28:50;;;;;;;1.10;1.00;;;2.10;99.90;;;;;;5114074;28;20036;-73
2023/12/07 03:31:15;;;;;;;0.93;0.93;;;2.10;99.90;;;;;;5115319;28;20039;-71
2023/12/07 03:33:42;;;;;;;1.10;1.00;;;2.10;99.90;;;;;;5114906;28;20093;-73
2023/12/07 03:36:11;;;;;;;1.30;1.20;;;2.00;99.90;;;;;;5115231;28;20499;-72
2023/12/07 03:38:36;;;;;;;1.35;1.25;;;2.00;99.90;;;;;;5115106;28;20042;-73
2023/12/07 03:41:02;;;;;;;0.93;0.90;;;1.90;99.90;;;;;;5115139;28;20039;-70
2023/12/07 03:43:28;;;;;;;1.08;1.00;;;1.90;99.90;;;;;;5115146;28;20040;-72
2023/12/07 03:45:53;;;;;;;1.30;1.20;;;1.80;99.90;;;;;;5114969;28;20371;-74
2023/12/07 03:48:19;;;;;;;1.63;1.52;;;1.70;99.90;;;;;;5115668;28;20039;-71
2023/12/07 03:50:44;;;;;;;1.85;1.73;;;1.60;99.90;;;;;;5115343;28;20039;-74
2023/12/07 03:53:10;;;;;;;1.70;1.30;;;1.60;99.90;;;;;;5114655;28;20428;-73
2023/12/07 03:55:36;;;;;;;1.10;1.00;;;1.60;99.90;;;;;;5114911;28;20039;-71
2023/12/07 03:58:02;;;;;;;1.10;1.00;;;1.50;99.90;;;;;;5114811;28;20036;-71
2023/12/07 04:00:28;;;;;;;1.10;1.00;;;1.40;99.90;;;;;;5114696;28;20366;-70
2023/12/07 04:02:53;;;;;;;1.00;1.00;;;1.40;99.90;;;;;;5113810;28;20048;-72
2023/12/07 04:05:19;;;;;;;1.10;1.00;;;1.40;99.90;;;;;;5114695;28;20028;-73
2023/12/07 04:07:44;;;;;;;1.10;1.00;;;1.30;99.90;;;;;;5115192;28;20050;-71
2023/12/07 04:10:10;;;;;;;0.95;0.95;;;1.30;99.90;;;;;;5113572;28;20039;-70
2023/12/07 04:12:36;;;;;;;1.27;1.17;;;1.20;99.90;;;;;;5114607;28;20027;-71
2023/12/07 04:15:02;;;;;;;1.20;1.10;;;1.20;99.90;;;;;;5114505;28;20043;-73
2023/12/07 04:17:28;;;;;;;1.10;1.00;;;1.20;99.90;;;;;;5114456;28;20036;-71
2023/12/07 04:19:53;;;;;;;1.10;1.00;;;1.20;99.90;;;;;;5114169;28;20482;-71
2023/12/07 04:22:19;;;;;;;1.20;1.10;;;1.10;99.90;;;;;;5115326;28;20053;-73
2023/12/07 04:24:45;;;;;;;3.88;3.55;;;1.00;99.90;;;;;;5114365;28;20383;-73
2023/12/07 04:27:10;;;;;;;1.10;1.00;;;1.00;99.90;;;;;;5114194;28;20031;-70
2023/12/07 04:29:36;;;;;;;1.10;1.00;;;1.00;99.90;;;;;;5114420;28;20067;-72
2023/12/07 04:32:02;;;;;;;4.22;3.85;;;1.00;99.90;;;;;;5114275;28;20095;-73
2023/12/07 04:34:27;;;;;;;2.08;1.98;;;1.00;99.90;;;;;;5114390;28;20155;-74
2023/12/07 04:36:53;;;;;;;1.10;1.00;;;1.00;99.90;;;;;;5114815;28;20039;-73
2023/12/07 04:39:19;;;;;;;1.10;1.00;;;1.30;99.90;;;;;;5114442;28;20034;-70
2023/12/07 04:41:44;;;;;;;1.10;1.00;;;1.00;99.90;;;;;;5114162;28;20054;-72
2023/12/07 04:44:10;;;;;;;1.10;1.00;;;1.00;99.90;;;;;;5114330;28;20040;-72
2023/12/07 04:46:36;;;;;;;1.10;1.00;;;1.10;99.90;;;;;;5114046;28;20127;-73
2023/12/07 04:49:01;;;;;;;1.20;1.10;;;1.10;99.90;;;;;;5114189;28;20046;-71
2023/12/07 04:51:27;;;;;;;1.10;1.00;;;1.10;99.90;;;;;;5114763;28;20104;-73
2023/12/07 04:53:52;;;;;;;1.10;1.00;;;1.10;99.90;;;;;;5114182;28;20075;-71
2023/12/07 04:56:18;;;;;;;1.10;1.00;;;1.10;99.90;;;;;;5114239;28;20040;-73
2023/12/07 04:58:44;;;;;;;1.20;1.10;;;1.10;99.90;;;;;;5113992;28;20040;-73
2023/12/07 05:01:10;;;;;;;1.10;1.00;;;1.10;99.90;;;;;;5114025;28;20455;-70
2023/12/07 05:03:35;;;;;;;1.40;1.30;;;1.10;99.90;;;;;;5114499;28;20071;-71
2023/12/07 05:06:01;;;;;;;1.38;1.27;;;1.10;99.90;;;;;;5114552;28;20032;-71
2023/12/07 05:08:26;;;;;;;1.10;1.00;;;2.10;99.90;;;;;;5114224;28;20043;-70
2023/12/07 05:10:52;;;;;;;1.20;1.10;;;1.10;99.90;;;;;;5113959;28;20043;-73
2023/12/07 05:13:18;;;;;;;1.10;1.00;;;1.10;99.90;;;;;;5115472;28;20506;-73
2023/12/07 05:15:46;;;;;;;1.42;1.33;;;1.10;99.90;;;;;;5117939;28;20043;-74
2023/12/07 05:18:12;;;;;;;1.10;1.00;;;1.10;99.90;;;;;;5117938;28;20043;-71
2023/12/07 05:20:39;;;;;;;1.10;1.00;;;1.10;99.90;;;;;;5117930;28;20052;-73
2023/12/07 05:23:05;;;;;;;1.10;1.00;;;1.00;99.90;;;;;;5118261;28;20039;-72
2023/12/07 05:25:32;;;;;;;1.20;1.10;;;1.00;99.90;;;;;;5117828;28;20119;-70
2023/12/07 05:27:58;;;;;;;1.10;1.00;;;1.00;99.90;;;;;;5117763;28;20100;-71
2023/12/07 05:30:24;;;;;;;1.30;1.20;;;1.00;99.90;;;;;;5117663;28;20105;-73
2023/12/07 05:32:50;;;;;;;1.10;1.00;;;1.00;99.90;;;;;;5117625;28;20745;-73
2023/12/07 05:35:16;;;;;;;1.42;1.33;;;1.00;99.90;;;;;;5117559;28;20374;-70
2023/12/07 05:37:41;;;;;;;1.77;1.67;;;1.00;99.90;;;;;;5116799;28;20122;-71
2023/12/07 05:40:09;;;;;;;1.20;1.10;;;1.00;99.90;;;;;;5117525;28;20035;-73
2023/12/07 05:42:34;;;;;;;1.20;1.10;;;0.90;99.90;;;;;;5117498;28;20086;-71
2023/12/07 05:45:00;;;;;;;1.10;1.00;;;0.90;99.90;;;;;;5117457;27;20475;-71
2023/12/07 05:47:26;;;;;;;1.13;1.02;;;0.90;99.90;;;;;;5117407;28;20036;-73
2023/12/07 05:49:52;;;;;;;1.37;1.20;;;0.90;99.90;;;;;;5117347;28;20463;-72
2023/12/07 05:52:20;;;;;;;1.23;1.10;;;0.90;99.90;;;;;;5117474;28;20319;-71
2023/12/07 05:54:47;;;;;;;1.10;1.00;;;0.90;99.90;;;;;;5117207;28;20123;-70
2023/12/07 05:57:13;;;;;;;;;;;0.90;99.90;;;;;;5117540;28;20044;-71
2023/12/07 05:59:39;;;;;;;1.10;1.00;;;0.80;99.90;;;;;;5117003;28;20312;-71
2023/12/07 06:02:05;;;;;;;1.42;1.33;;;0.80;99.90;;;;;;5117356;28;20031;-72
2023/12/07 06:04:30;;;;;;;1.20;1.10;;;0.90;99.90;;;;;;5117220;28;20034;-73
2023/12/07 06:06:56;;;;;;;1.10;1.00;;;0.90;99.90;;;;;;5117334;28;20035;-73
2023/12/07 06:09:22;;;;;;;1.40;1.30;;;0.80;99.90;;;;;;5116952;28;20142;-70
2023/12/07 06:11:48;;;;;;;1.33;1.23;;;0.90;99.90;;;;;;5117060;28;20027;-74
2023/12/07 06:14:13;;;;;;;1.10;1.00;;;0.90;99.90;;;;;;5116930;28;20040;-73
2023/12/07 06:16:39;;;;;;;1.20;1.10;;;0.90;99.90;;;;;;5116786;28;20089;-71
2023/12/07 06:19:05;;;;;;;1.30;1.20;;;0.90;99.90;;;;;;5116704;28;20375;-74
2023/12/07 06:21:31;;;;;;;1.20;1.10;;;0.90;99.90;;;;;;5116864;28;20459;-71
2023/12/07 06:23:58;;;;;;;1.30;1.20;;;0.90;99.90;;;;;;5116232;28;20031;-72
2023/12/07 06:26:24;;;;;;;1.13;1.02;;;0.90;99.90;;;;;;5115996;28;20039;-73
2023/12/07 06:28:50;;;;;;;2.00;1.90;;;1.00;99.90;;;;;;5116578;28;20039;-71
2023/12/07 06:31:19;;;;;;;1.27;1.17;;;1.00;99.90;;;;;;5116746;28;20122;-72
2023/12/07 06:33:45;;;;;;;1.20;1.10;;;1.00;99.90;;;;;;5116542;28;20043;-72
2023/12/07 06:36:11;;;;;;;1.30;1.20;;;1.00;99.90;;;;;;5116487;28;20047;-72
2023/12/07 06:38:38;;;;;;;1.08;1.00;;;1.00;99.90;;;;;;5116352;28;20483;-73
2023/12/07 06:41:04;;;;;;;1.55;1.20;;;1.00;99.90;;;;;;5116424;28;20157;-75
2023/12/07 06:43:29;;;;;;;1.17;1.08;;;1.00;99.90;;;;;;5116384;28;20511;-71
2023/12/07 06:45:55;;;;;;;1.20;1.10;;;1.10;99.90;;;;;;5116322;28;20039;-71
2023/12/07 06:48:21;;;;;;;1.67;1.57;;;1.00;99.90;;;;;;5116217;28;20114;-70
2023/12/07 06:50:46;;;;;;;1.10;1.00;;;1.00;99.90;;;;;;5116192;28;20172;-71
2023/12/07 06:53:14;;;;;;;13.30;2.65;;;1.10;99.90;;;;;;5116340;28;20036;-72
2023/12/07 06:55:41;;;;;;;1.10;1.00;;;1.10;99.90;;;;;;5116169;28;20120;-73
2023/12/07 06:58:06;;;;;;;1.48;1.38;;;1.10;99.90;;;;;;5116027;28;20050;-73
2023/12/07 07:00:32;;;;;;;1.30;1.20;;;1.10;99.90;;;;;;5115991;28;20039;-72
2023/12/07 07:02:58;;;;;;;1.10;1.00;;;1.10;99.90;;;;;;5116339;28;20044;-72
2023/12/07 07:05:24;;;;;;;0.95;0.95;;;1.10;99.90;;;;;;5115900;28;20036;-72
2023/12/07 07:07:51;;;;;;;1.10;1.00;;;1.10;99.90;;;;;;5115895;28;20039;-73
2023/12/07 07:10:17;;;;;;;1.10;1.00;;;1.10;99.90;;;;;;5115924;28;20114;-69
2023/12/07 07:12:42;;;;;;;1.60;1.50;;;1.10;99.90;;;;;;5114903;28;20154;-73
2023/12/07 07:15:08;;;;;;;1.80;1.27;;;1.10;99.90;;;;;;5115802;28;20043;-69
2023/12/07 07:17:34;;;;;;;1.10;1.00;;;1.20;99.90;;;;;;5115640;28;20456;-72
2023/12/07 07:20:00;;;;;;;1.10;1.00;;;1.20;99.90;;;;;;5115730;28;20039;-72
2023/12/07 07:22:25;;;;;;;1.50;1.40;;;1.20;99.90;;;;;;5115882;27;20040;-70
2023/12/07 07:24:52;;;;;;;1.45;1.35;;;1.20;99.90;;;;;;5115614;28;20379;-71
2023/12/07 07:27:18;;;;;;;1.10;1.00;;;1.20;99.90;;;;;;5115504;28;20039;-74
2023/12/07 07:29:44;;;;;;;1.10;1.00;;;1.20;99.90;;;;;;5115568;28;20539;-74
2023/12/07 07:32:10;;;;;;;1.10;1.00;;;1.20;99.90;;;;;;5115464;28;20046;-72
2023/12/07 07:34:36;;;;;;;1.10;1.00;;;1.20;99.90;;;;;;5115762;28;20502;-72
2023/12/07 07:37:02;;;;;;;1.20;1.10;;;1.20;99.90;;;;;;5115637;28;20048;-75
2023/12/07 07:39:28;;;;;;;1.20;1.10;;;1.20;99.90;;;;;;5115182;28;20124;-71
2023/12/07 07:41:54;;;;;;;1.20;1.10;;;1.20;99.90;;;;;;5115451;28;20066;-70
2023/12/07 07:44:19;;;;;;;2.33;2.13;;;1.20;99.90;;;;;;5115181;28;20075;-71
2023/12/07 07:46:46;;;;;;;1.10;1.00;;;1.20;99.90;;;;;;5115480;28;20126;-73
2023/12/07 07:49:11;;;;;;;1.30;1.20;;;1.20;99.90;;;;;;5115306;28;20463;-71
2023/12/07 07:51:38;;;;;;;1.30;1.20;;;1.20;99.90;;;;;;5115256;28;20032;-72
2023/12/07 07:54:04;;;;;;;1.20;1.10;;;1.20;99.90;;;;;;5115139;28;20039;-74
2023/12/07 07:56:29;;;;;;;1.20;1.10;;;1.20;99.90;;;;;;5115121;28;20536;-74
2023/12/07 07:58:55;;;;;;;1.30;1.20;;;1.20;99.90;;;;;;5115173;28;20528;-74
2023/12/07 08:01:21;;;;;;;1.10;1.00;;;1.30;99.90;;;;;;5114964;28;20482;-72
2023/12/07 08:03:47;;;;;;;1.35;1.25;;;1.20;99.90;;;;;;5113782;28;20048;-71
2023/12/07 08:06:12;;;;;;;1.50;1.40;;;1.20;99.90;;;;;;5114708;28;20043;-72
2023/12/07 08:08:38;;;;;;;6.43;2.55;;;1.20;99.90;;;;;;5114910;28;20047;-72
2023/12/07 08:11:05;;;;;;;1.25;1.15;;;1.20;99.90;;;;;;5114959;28;20083;-74
2023/12/07 08:13:30;;;;;;;1.40;1.30;;;1.60;99.90;;;;;;5114498;28;20174;-70
2023/12/07 08:15:56;;;;;;;1.13;1.02;;;1.30;99.90;;;;;;5114774;28;20122;-71
2023/12/07 08:18:22;;;;;;;1.45;1.35;;;1.30;99.90;;;;;;5114590;28;20047;-75
2023/12/07 08:20:48;;;;;;;2.20;1.83;;;1.30;99.90;;;;;;5114574;28;20174;-78
2023/12/07 08:23:13;;;;;;;1.10;1.00;;;1.30;99.90;;;;;;5114774;28;20086;-74
2023/12/07 08:25:40;;;;;;;1.20;1.10;;;1.30;99.90;;;;;;5114574;28;20085;-72
2023/12/07 08:28:05;;;;;;;3.22;2.97;;;1.30;99.90;;;;;;5113020;28;20040;-72
2023/12/07 08:30:31;;;;;;;8.43;1.77;;;1.30;99.90;;;;;;5113216;28;20040;-73
2023/12/07 08:32:57;;;;;;;1.73;1.63;;;1.30;99.90;;;;;;5114547;28;20096;-72
2023/12/07 08:35:23;;;;;;;19.20;3.00;;;1.30;99.90;;;;;;5114488;28;20042;-73
2023/12/07 08:37:48;;;;;;;1.10;1.00;;;1.30;99.90;;;;;;5114089;28;20044;-72
2023/12/07 08:40:15;;;;;;;2.85;2.42;;;1.30;99.90;;;;;;5114055;28;20163;-70
2023/12/07 08:42:43;;;;;;;1.63;1.52;;;1.30;99.90;;;;;;5114377;28;20367;-74
2023/12/07 08:45:09;;;;;;;1.20;1.10;;;1.20;99.90;;;;;;5114273;28;20047;-70
2023/12/07 08:47:35;;;;;;;1.90;1.80;;;1.20;99.90;;;;;;5115922;28;20043;-71
2023/12/07 08:50:00;;;;;;;1.15;1.05;;;1.20;99.90;;;;;;5121108;28;20031;-72
2023/12/07 08:52:27;;;;;;;1.30;1.20;;;1.20;99.90;;;;;;5121051;28;20127;-72
2023/12/07 08:54:52;;;;;;;1.15;1.05;;;1.20;99.90;;;;;;5121208;27;20158;-70
2023/12/07 08:57:18;;;;;;;2.47;2.30;;;1.20;99.90;;;;;;5120799;28;20523;-71
2023/12/07 08:59:44;;;;;;;2.47;1.17;;;1.30;99.90;;;;;;5121033;27;20040;-71
2023/12/07 09:02:09;;;;;;;4.68;3.50;;;1.20;99.90;;;;;;5120713;28;20371;-74
2023/12/07 09:04:35;;;;;;;1.10;1.00;;;1.20;99.90;;;;;;5121041;28;20035;-72
2023/12/07 09:07:01;;;;;;;1.10;1.00;;;1.30;99.90;;;;;;5120893;28;20031;-72
2023/12/07 09:09:26;;;;;;;1.30;1.20;;;1.10;99.90;;;;;;5121136;28;20066;-70
2023/12/07 09:11:53;;;;;;;1.63;1.52;;;1.10;99.90;;;;;;5120805;28;20122;-73
2023/12/07 09:14:18;;;;;;;1.90;1.80;;;1.10;99.90;;;;;;5121036;27;20089;-71
2023/12/07 09:16:45;;;;;;;1.10;1.00;;;1.10;99.90;;;;;;5120926;28;20039;-73
2023/12/07 09:19:12;;;;;;;2.00;1.48;;;1.10;99.90;;;;;;5121050;27;20031;-69
2023/12/07 09:21:39;;;;;;;1.67;1.58;;;1.10;99.90;;;;;;5120550;27;20055;-73
2023/12/07 09:24:06;;;;;;;1.20;1.10;;;1.10;99.90;;;;;;5120633;27;20126;-73
2023/12/07 09:26:32;;;;;;;1.35;1.25;;;1.10;99.90;;;;;;5120722;27;20047;-73
2023/12/07 09:28:58;;;;;;;2.22;2.03;;;1.10;99.90;;;;;;5120798;27;20044;-73
2023/12/07 09:31:23;;;;;;;2.05;1.95;;;1.20;99.90;;;;;;5121296;28;20512;-69
2023/12/07 09:33:49;;;;;;;2.92;2.67;;;1.00;99.90;;;;;;5120762;28;20035;-71
2023/12/07 09:36:21;;;;;;;1.20;1.10;;;1.00;99.90;;;;;;5120575;28;20039;-73
2023/12/07 09:38:47;;;;;;;1.20;1.10;;;0.80;99.90;;;;;;5120695;27;20043;-71
2023/12/07 09:41:13;;;;;;;1.55;1.45;;;0.70;99.90;;;;;;5120620;28;20375;-71
2023/12/07 09:43:39;;;;;;;1.20;1.10;;;0.70;99.90;;;;;;5121292;27;20050;-72
2023/12/07 09:46:06;;;;;;;1.25;1.15;;;0.60;99.90;;;;;;5120927;27;20039;-72
2023/12/07 09:48:32;;;;;;;1.10;1.00;;;0.60;99.90;;;;;;5109829;27;20043;-71
2023/12/07 09:50:59;;;;;;;2.47;2.35;;;0.60;99.90;;;;;;5109362;28;20032;-73
2023/12/07 09:53:28;;;;;;;3.55;3.25;;;0.60;99.90;;;;;;5098000;28;20032;-74
2023/12/07 09:55:54;;;;;;;1.65;1.55;;;0.60;99.90;;;;;;5098121;28;20032;-75
2023/12/07 09:58:19;;;;;;;1.20;1.10;;;0.60;99.90;;;;;;5099618;28;20055;-71
2023/12/07 10:00:47;;;;;;;1.75;1.65;;;0.60;99.90;;;;;;5095415;28;20032;-73
2023/12/07 10:03:22;;;;;;;1.20;1.10;;;0.60;99.90;;;;;;5096668;28;20040;-71
2023/12/07 10:05:56;;;;;;;1.50;1.40;;;0.60;99.90;;;;;;5097021;28;20412;-73
2023/12/07 10:08:29;;;;;;;1.63;1.52;;;0.60;99.90;;;;;;5096605;28;20078;-73
2023/12/07 10:11:05;;;;;;;1.20;1.10;;;0.50;99.90;;;;;;5096882;28;20079;-74
2023/12/07 10:13:31;;;;;;;1.30;1.20;;;0.60;99.90;;;;;;5096693;28;20350;-73
2023/12/07 10:16:10;;;;;;;1.50;1.40;;;0.60;99.90;;;;;;5096543;28;20076;-72
2023/12/07 10:18:36;;;;;;;1.50;1.40;;;0.60;99.90;;;;;;5096366;28;20085;-72
2023/12/07 10:21:02;;;;;;;1.60;1.50;;;0.70;99.90;;;;;;5095026;28;20056;-72
2023/12/07 10:23:31;;;;;;;1.45;1.35;;;0.70;99.90;;;;;;5096278;28;20040;-73
2023/12/07 10:25:59;;;;;;;1.30;1.20;;;0.60;99.90;;;;;;5096413;28;20040;-73
2023/12/07 10:28:25;;;;;;;1.30;1.20;;;0.60;99.90;;;;;;5096758;28;20100;-73
2023/12/07 10:30:51;;;;;;;1.92;1.25;;;0.60;99.90;;;;;;5096387;28;20550;-71
2023/12/07 10:33:19;;;;;;;1.55;1.45;;;0.60;99.90;;;;;;5096123;28;20040;-70
2023/12/07 10:35:44;;;;;;;1.63;1.40;;;0.60;99.90;;;;;;5096002;28;20067;-72
2023/12/07 10:38:10;;;;;;;1.50;1.40;;;0.60;99.90;;;;;;5096024;28;20506;-71
2023/12/07 10:40:36;;;;;;;2.13;2.03;;;0.60;99.90;;;;;;5095844;28;20068;-73
2023/12/07 10:43:05;;;;;;;1.20;1.10;;;0.60;99.90;;;;;;5095959;28;20059;-72
2023/12/07 10:45:31;;;;;;;1.20;1.10;;;0.60;99.90;;;;;;5095893;28;20032;-73
2023/12/07 10:48:04;;;;;;;8.30;4.23;;;0.60;99.90;;;;;;5095904;28;20047;-72
2023/12/07 10:50:32;;;;;;;1.17;1.08;;;0.70;99.90;;;;;;5095857;28;20279;-74
2023/12/07 10:53:03;;;;;;;1.40;1.30;;;0.60;99.90;;;;;;5095765;28;20043;-73
2023/12/07 10:55:32;;;;;;;1.48;1.38;;;0.60;99.90;;;;;;5096073;28;20040;-72
2023/12/07 10:57:59;;;;;;;1.67;1.58;;;0.60;99.90;;;;;;5095690;28;20040;-71
2023/12/07 11:00:27;;;;;;;1.95;1.85;;;0.60;99.90;;;;;;5095664;28;20089;-73
2023/12/07 11:02:53;;;;;;;1.58;1.48;;;0.60;99.90;;;;;;5095403;28;20036;-72
2023/12/07 11:05:20;;;;;;;1.20;1.10;;;0.60;99.90;;;;;;5095515;28;20044;-70
2023/12/07 11:08:06;;;;;;;1.53;1.43;;;0.60;99.90;;;;;;5095484;28;20048;-71
2023/12/07 11:10:41;;;;;;;1.42;1.33;;;0.70;99.90;;;;;;5094178;28;20340;-72
2023/12/07 11:13:26;;;;;;;1.13;1.02;;;0.80;99.90;;;;;;5095541;28;20126;-74
2023/12/07 11:15:52;;;;;;;1.30;1.20;;;0.80;99.90;;;;;;5095253;28;20042;-74
2023/12/07 11:18:18;;;;;;;1.50;1.40;;;0.80;99.90;;;;;;5095141;28;20036;-72
2023/12/07 11:20:47;;;;;;;1.48;1.38;;;0.80;99.90;;;;;;5094975;28;20056;-70
2023/12/07 11:23:18;;;;;;;1.10;1.00;;;0.80;99.90;;;;;;5095022;28;20055;-72
2023/12/07 11:25:45;;;;;;;4.40;3.28;;;0.90;99.90;;;;;;5094914;28;20418;-70
2023/12/07 11:28:12;;;;;;;1.40;1.30;;;0.90;99.90;;;;;;5095023;28;20089;-71
2023/12/07 11:30:38;;;;;;;1.25;1.15;;;0.90;99.90;;;;;;5094953;28;20051;-70
2023/12/07 11:33:05;;;;;;;2.87;2.67;;;0.90;99.90;;;;;;5094865;28;20460;-73
2023/12/07 11:35:31;;;;;;;4.05;3.72;;;1.00;99.90;;;;;;5094851;28;20040;-73
2023/12/07 11:38:08;;;;;;;1.90;1.80;;;1.00;99.90;;;;;;5095394;28;20051;-71
2023/12/07 11:40:39;;;;;;;3.93;3.53;;;1.10;99.90;;;;;;5094965;28;20032;-72
2023/12/07 11:43:06;;;;;;;1.83;1.73;;;1.00;99.90;;;;;;5093727;28;20044;-72
2023/12/07 11:45:42;;;;;;;1.52;1.42;;;1.10;99.90;;;;;;5094735;28;20051;-72
2023/12/07 11:48:12;;;;;;;1.73;1.63;;;1.10;99.90;;;;;;5094624;28;20051;-70
2023/12/07 11:50:56;;;;;;;1.10;1.00;;;1.10;99.90;;;;;;5094695;28;20036;-72
2023/12/07 11:53:23;;;;;;;2.17;2.08;;;1.10;99.90;;;;;;5095037;28;20040;-70
2023/12/07 11:55:49;;;;;;;1.58;1.48;;;1.10;99.90;;;;;;5094534;28;20036;-72
2023/12/07 11:58:15;;;;;;;2.30;2.10;;;1.10;99.90;;;;;;5094513;28;20472;-73
2023/12/07 12:00:41;;;;;;;19.13;5.60;;;1.10;99.90;;;;;;5094335;28;20046;-71
2023/12/07 12:03:07;;;;;;;1.67;1.58;;;1.10;99.90;;;;;;5094405;28;20059;-71
2023/12/07 12:05:32;;;;;;;1.20;1.10;;;1.10;99.90;;;;;;5094564;28;20125;-73
2023/12/07 12:07:58;;;;;;;2.10;2.00;;;1.10;99.90;;;;;;5094344;28;20036;-71
2023/12/07 12:10:25;;;;;;;3.33;3.08;;;1.10;99.90;;;;;;5093241;28;20036;-71
2023/12/07 12:12:53;;;;;;;7.82;3.05;;;1.20;99.90;;;;;;5097800;28;20120;-71
2023/12/07 12:15:20;;;;;;;1.42;1.33;;;1.20;99.90;;;;;;5097716;28;20119;-75
2023/12/07 12:17:45;;;;;;;;;;;1.20;99.90;;;;;;5101027;28;20036;-69
2023/12/07 12:20:17;;;;;;;1.30;1.20;;;1.30;99.90;;;;;;5093837;28;19916;-70
2023/12/07 12:22:43;;;;;;;4.35;3.95;;;1.30;99.90;;;;;;5093468;28;20391;-69
2023/12/07 12:25:10;;;;;;;2.00;1.90;;;1.30;99.90;;;;;;5093488;28;20438;-69
2023/12/07 12:27:36;;;;;;;1.30;1.20;;;1.30;99.90;;;;;;5094067;28;20289;-71
2023/12/07 12:30:03;;;;;;;5.03;4.63;;;1.40;99.90;;;;;;5094034;28;20040;-71
2023/12/07 12:32:42;;;;;;;2.65;2.45;;;1.40;99.90;;;;;;5093942;28;20044;-71
2023/12/07 12:35:08;;;;;;;2.20;1.77;;;1.40;99.90;;;;;;5094678;28;20467;-70
2023/12/07 12:37:33;;;;;;;3.03;2.83;;;1.50;99.90;;;;;;5094071;28;20424;-69
2023/12/07 12:40:05;;;;;;;1.45;1.10;;;1.50;99.90;;;;;;5093938;28;20079;-71
2023/12/07 12:42:31;;;;;;;1.85;1.75;;;1.60;99.90;;;;;;5093929;28;20036;-69
2023/12/07 12:44:57;;;;;;;10.55;3.75;;;1.60;99.90;;;;;;5093969;28;20043;-70
2023/12/07 12:47:23;;;;;;;1.42;1.33;;;1.60;99.90;;;;;;5093739;28;20042;-73
2023/12/07 12:49:48;;;;;;;3.95;3.08;;;1.60;99.90;;;;;;5093697;28;20040;-70
2023/12/07 12:52:16;;;;;;;1.63;1.40;;;1.60;99.90;;;;;;5094083;28;20051;-72
2023/12/07 12:54:43;;;;;;;3.78;3.13;;;1.70;99.90;;;;;;5093709;28;20047;-74